sensor_id;sensor_type;location;lat;lon;timestamp;P1;durP1;ratioP1;P2;durP2;ratioP2
22318;SDS011;11327;52.334;9.506;2022-08-21T00:00:47;4.78;;;2.52;;
22318;SDS011;11327;52.334;9.506;2022-08-21T00:04:09;3.55;;;2.37;;
22318;SDS011;11327;52.334;9.506;2022-08-21T00:07:30;3.27;;;2.12;;
22318;SDS011;11327;52.334;9.506;2022-08-21T00:10:53;4.85;;;2.58;;
22318;SDS011;11327;52.334;9.506;2022-08-21T00:14:14;6.17;;;2.25;;
22318;SDS011;11327;52.334;9.506;2022-08-21T00:17:35;4.65;;;2.30;;
22318;SDS011;11327;52.334;9.506;2022-08-21T00:20:56;3.95;;;2.50;;
22318;SDS011;11327;52.334;9.506;2022-08-21T00:24:18;5.62;;;2.67;;
22318;SDS011;11327;52.334;9.506;2022-08-21T00:27:41;5.65;;;2.87;;
22318;SDS011;11327;52.334;9.506;2022-08-21T00:31:03;4.20;;;2.40;;
22318;SDS011;11327;52.334;9.506;2022-08-21T00:34:24;3.45;;;2.22;;
22318;SDS011;11327;52.334;9.506;2022-08-21T00:37:45;4.22;;;2.12;;
22318;SDS011;11327;52.334;9.506;2022-08-21T00:41:07;4.08;;;2.00;;
22318;SDS011;11327;52.334;9.506;2022-08-21T00:44:30;3.85;;;2.10;;
22318;SDS011;11327;52.334;9.506;2022-08-21T00:47:51;5.30;;;2.42;;
22318;SDS011;11327;52.334;9.506;2022-08-21T00:51:23;2.98;;;2.05;;
22318;SDS011;11327;52.334;9.506;2022-08-21T00:54:46;3.10;;;1.80;;
22318;SDS011;11327;52.334;9.506;2022-08-21T00:58:09;3.33;;;2.00;;
22318;SDS011;11327;52.334;9.506;2022-08-21T01:01:33;2.15;;;1.80;;
22318;SDS011;11327;52.334;9.506;2022-08-21T01:04:54;3.62;;;2.08;;
22318;SDS011;11327;52.334;9.506;2022-08-21T01:08:16;3.47;;;2.10;;
22318;SDS011;11327;52.334;9.506;2022-08-21T01:11:37;4.60;;;1.70;;
22318;SDS011;11327;52.334;9.506;2022-08-21T01:15:00;3.15;;;1.90;;
22318;SDS011;11327;52.334;9.506;2022-08-21T01:18:23;3.27;;;1.90;;
22318;SDS011;11327;52.334;9.506;2022-08-21T01:21:44;5.00;;;2.05;;
22318;SDS011;11327;52.334;9.506;2022-08-21T01:25:06;5.03;;;2.65;;
22318;SDS011;11327;52.334;9.506;2022-08-21T01:28:28;3.80;;;2.05;;
22318;SDS011;11327;52.334;9.506;2022-08-21T01:31:53;4.33;;;2.33;;
22318;SDS011;11327;52.334;9.506;2022-08-21T01:35:15;3.70;;;2.10;;
22318;SDS011;11327;52.334;9.506;2022-08-21T01:38:38;3.17;;;2.40;;
22318;SDS011;11327;52.334;9.506;2022-08-21T01:41:59;6.75;;;3.00;;
22318;SDS011;11327;52.334;9.506;2022-08-21T01:45:20;4.60;;;2.40;;
22318;SDS011;11327;52.334;9.506;2022-08-21T01:48:41;3.42;;;2.15;;
22318;SDS011;11327;52.334;9.506;2022-08-21T01:52:03;4.10;;;2.22;;
22318;SDS011;11327;52.334;9.506;2022-08-21T01:55:25;3.37;;;1.92;;
22318;SDS011;11327;52.334;9.506;2022-08-21T01:58:47;2.58;;;2.00;;
22318;SDS011;11327;52.334;9.506;2022-08-21T02:02:08;2.30;;;1.90;;
22318;SDS011;11327;52.334;9.506;2022-08-21T02:05:29;4.80;;;2.37;;
22318;SDS011;11327;52.334;9.506;2022-08-21T02:08:51;3.17;;;2.20;;
22318;SDS011;11327;52.334;9.506;2022-08-21T02:12:12;3.33;;;2.10;;
22318;SDS011;11327;52.334;9.506;2022-08-21T02:15:33;3.17;;;2.00;;
22318;SDS011;11327;52.334;9.506;2022-08-21T02:18:54;3.85;;;2.12;;
22318;SDS011;11327;52.334;9.506;2022-08-21T02:22:15;3.12;;;2.20;;
22318;SDS011;11327;52.334;9.506;2022-08-21T02:25:37;3.85;;;2.27;;
22318;SDS011;11327;52.334;9.506;2022-08-21T02:28:58;3.45;;;1.92;;
22318;SDS011;11327;52.334;9.506;2022-08-21T02:32:20;3.00;;;2.22;;
22318;SDS011;11327;52.334;9.506;2022-08-21T02:35:43;5.35;;;2.87;;
22318;SDS011;11327;52.334;9.506;2022-08-21T02:39:05;4.67;;;2.50;;
22318;SDS011;11327;52.334;9.506;2022-08-21T02:42:26;3.22;;;2.30;;
22318;SDS011;11327;52.334;9.506;2022-08-21T02:45:47;4.58;;;2.40;;
22318;SDS011;11327;52.334;9.506;2022-08-21T02:49:10;2.98;;;2.12;;
22318;SDS011;11327;52.334;9.506;2022-08-21T02:52:31;3.65;;;2.05;;
22318;SDS011;11327;52.334;9.506;2022-08-21T02:55:53;4.35;;;2.40;;
22318;SDS011;11327;52.334;9.506;2022-08-21T02:59:16;4.62;;;2.58;;
22318;SDS011;11327;52.334;9.506;2022-08-21T03:02:38;3.12;;;2.17;;
22318;SDS011;11327;52.334;9.506;2022-08-21T03:05:59;4.25;;;2.47;;
22318;SDS011;11327;52.334;9.506;2022-08-21T03:09:20;3.62;;;2.00;;
22318;SDS011;11327;52.334;9.506;2022-08-21T03:12:41;2.92;;;2.17;;
22318;SDS011;11327;52.334;9.506;2022-08-21T03:16:03;4.03;;;2.30;;
22318;SDS011;11327;52.334;9.506;2022-08-21T03:19:26;3.75;;;2.42;;
22318;SDS011;11327;52.334;9.506;2022-08-21T03:22:47;3.08;;;1.92;;
22318;SDS011;11327;52.334;9.506;2022-08-21T03:26:08;2.20;;;1.70;;
22318;SDS011;11327;52.334;9.506;2022-08-21T03:29:31;4.85;;;2.30;;
22318;SDS011;11327;52.334;9.506;2022-08-21T03:32:52;3.17;;;2.33;;
22318;SDS011;11327;52.334;9.506;2022-08-21T03:36:14;3.58;;;2.40;;
22318;SDS011;11327;52.334;9.506;2022-08-21T03:39:36;4.28;;;2.40;;
22318;SDS011;11327;52.334;9.506;2022-08-21T03:42:57;2.65;;;2.30;;
22318;SDS011;11327;52.334;9.506;2022-08-21T03:46:19;4.10;;;2.50;;
22318;SDS011;11327;52.334;9.506;2022-08-21T03:49:40;2.87;;;2.35;;
22318;SDS011;11327;52.334;9.506;2022-08-21T03:53:01;6.00;;;2.60;;
22318;SDS011;11327;52.334;9.506;2022-08-21T03:56:23;4.40;;;2.25;;
22318;SDS011;11327;52.334;9.506;2022-08-21T03:59:44;2.85;;;2.10;;
22318;SDS011;11327;52.334;9.506;2022-08-21T04:03:05;2.80;;;1.87;;
22318;SDS011;11327;52.334;9.506;2022-08-21T04:06:26;2.65;;;1.98;;
22318;SDS011;11327;52.334;9.506;2022-08-21T04:09:47;3.12;;;1.90;;
22318;SDS011;11327;52.334;9.506;2022-08-21T04:13:08;3.85;;;2.00;;
22318;SDS011;11327;52.334;9.506;2022-08-21T04:16:29;3.92;;;2.00;;
22318;SDS011;11327;52.334;9.506;2022-08-21T04:19:51;4.22;;;2.30;;
22318;SDS011;11327;52.334;9.506;2022-08-21T04:23:12;2.65;;;1.85;;
22318;SDS011;11327;52.334;9.506;2022-08-21T04:26:37;3.70;;;2.25;;
22318;SDS011;11327;52.334;9.506;2022-08-21T04:29:56;4.70;;;1.98;;
22318;SDS011;11327;52.334;9.506;2022-08-21T04:33:18;3.22;;;1.90;;
22318;SDS011;11327;52.334;9.506;2022-08-21T04:36:40;5.28;;;2.00;;
22318;SDS011;11327;52.334;9.506;2022-08-21T04:40:01;4.55;;;2.62;;
22318;SDS011;11327;52.334;9.506;2022-08-21T04:43:23;5.40;;;2.20;;
22318;SDS011;11327;52.334;9.506;2022-08-21T04:46:44;3.77;;;2.20;;
22318;SDS011;11327;52.334;9.506;2022-08-21T04:50:06;3.83;;;2.08;;
22318;SDS011;11327;52.334;9.506;2022-08-21T04:53:30;4.53;;;2.30;;
22318;SDS011;11327;52.334;9.506;2022-08-21T04:56:56;2.40;;;1.98;;
22318;SDS011;11327;52.334;9.506;2022-08-21T05:00:20;2.92;;;2.27;;
22318;SDS011;11327;52.334;9.506;2022-08-21T05:03:45;2.65;;;2.00;;
22318;SDS011;11327;52.334;9.506;2022-08-21T05:07:10;3.85;;;2.20;;
22318;SDS011;11327;52.334;9.506;2022-08-21T05:10:37;4.65;;;2.52;;
22318;SDS011;11327;52.334;9.506;2022-08-21T05:13:56;2.65;;;2.30;;
22318;SDS011;11327;52.334;9.506;2022-08-21T05:17:17;4.62;;;2.42;;
22318;SDS011;11327;52.334;9.506;2022-08-21T05:20:39;4.87;;;2.52;;
22318;SDS011;11327;52.334;9.506;2022-08-21T05:23:59;3.75;;;1.95;;
22318;SDS011;11327;52.334;9.506;2022-08-21T05:27:21;4.42;;;2.22;;
22318;SDS011;11327;52.334;9.506;2022-08-21T05:30:41;6.03;;;2.60;;
22318;SDS011;11327;52.334;9.506;2022-08-21T05:34:03;4.50;;;2.30;;
22318;SDS011;11327;52.334;9.506;2022-08-21T05:37:24;4.53;;;2.60;;
22318;SDS011;11327;52.334;9.506;2022-08-21T05:40:45;3.30;;;2.60;;
22318;SDS011;11327;52.334;9.506;2022-08-21T05:44:07;3.37;;;2.30;;
22318;SDS011;11327;52.334;9.506;2022-08-21T05:47:28;4.97;;;2.40;;
22318;SDS011;11327;52.334;9.506;2022-08-21T05:50:49;5.33;;;2.70;;
22318;SDS011;11327;52.334;9.506;2022-08-21T05:54:12;4.33;;;2.37;;
22318;SDS011;11327;52.334;9.506;2022-08-21T05:57:33;4.70;;;2.40;;
22318;SDS011;11327;52.334;9.506;2022-08-21T06:00:54;3.10;;;2.50;;
22318;SDS011;11327;52.334;9.506;2022-08-21T06:04:15;4.47;;;2.40;;
22318;SDS011;11327;52.334;9.506;2022-08-21T06:07:36;4.97;;;3.60;;
22318;SDS011;11327;52.334;9.506;2022-08-21T06:10:58;5.03;;;2.98;;
22318;SDS011;11327;52.334;9.506;2022-08-21T06:14:20;3.55;;;2.67;;
22318;SDS011;11327;52.334;9.506;2022-08-21T06:17:41;4.17;;;2.90;;
22318;SDS011;11327;52.334;9.506;2022-08-21T06:21:02;5.15;;;2.75;;
22318;SDS011;11327;52.334;9.506;2022-08-21T06:24:24;5.30;;;2.80;;
22318;SDS011;11327;52.334;9.506;2022-08-21T06:27:46;3.72;;;2.77;;
22318;SDS011;11327;52.334;9.506;2022-08-21T06:31:26;3.90;;;2.70;;
22318;SDS011;11327;52.334;9.506;2022-08-21T06:34:38;4.40;;;3.10;;
22318;SDS011;11327;52.334;9.506;2022-08-21T06:38:00;4.45;;;3.00;;
22318;SDS011;11327;52.334;9.506;2022-08-21T06:41:22;5.45;;;3.42;;
22318;SDS011;11327;52.334;9.506;2022-08-21T06:44:43;7.05;;;3.72;;
22318;SDS011;11327;52.334;9.506;2022-08-21T06:48:04;4.92;;;3.10;;
22318;SDS011;11327;52.334;9.506;2022-08-21T06:51:27;5.05;;;2.92;;
22318;SDS011;11327;52.334;9.506;2022-08-21T06:54:48;5.45;;;3.00;;
22318;SDS011;11327;52.334;9.506;2022-08-21T06:58:10;5.55;;;3.27;;
22318;SDS011;11327;52.334;9.506;2022-08-21T07:01:31;6.28;;;3.10;;
22318;SDS011;11327;52.334;9.506;2022-08-21T07:04:52;5.40;;;2.80;;
22318;SDS011;11327;52.334;9.506;2022-08-21T07:08:14;3.72;;;2.20;;
22318;SDS011;11327;52.334;9.506;2022-08-21T07:11:35;5.08;;;3.10;;
22318;SDS011;11327;52.334;9.506;2022-08-21T07:14:57;5.37;;;2.80;;
22318;SDS011;11327;52.334;9.506;2022-08-21T07:18:18;4.08;;;2.02;;
22318;SDS011;11327;52.334;9.506;2022-08-21T07:21:39;2.90;;;1.80;;
22318;SDS011;11327;52.334;9.506;2022-08-21T07:25:00;5.15;;;2.12;;
22318;SDS011;11327;52.334;9.506;2022-08-21T07:28:21;7.33;;;2.40;;
22318;SDS011;11327;52.334;9.506;2022-08-21T07:31:42;5.87;;;2.10;;
22318;SDS011;11327;52.334;9.506;2022-08-21T07:35:04;6.85;;;2.30;;
22318;SDS011;11327;52.334;9.506;2022-08-21T07:38:25;5.55;;;2.50;;
22318;SDS011;11327;52.334;9.506;2022-08-21T07:41:47;5.92;;;2.40;;
22318;SDS011;11327;52.334;9.506;2022-08-21T07:45:08;7.08;;;2.60;;
22318;SDS011;11327;52.334;9.506;2022-08-21T07:48:30;7.45;;;2.83;;
22318;SDS011;11327;52.334;9.506;2022-08-21T07:51:51;5.87;;;2.27;;
22318;SDS011;11327;52.334;9.506;2022-08-21T07:55:14;4.47;;;1.87;;
22318;SDS011;11327;52.334;9.506;2022-08-21T07:58:37;5.50;;;2.27;;
22318;SDS011;11327;52.334;9.506;2022-08-21T08:01:58;6.42;;;2.00;;
22318;SDS011;11327;52.334;9.506;2022-08-21T08:05:20;5.53;;;1.62;;
22318;SDS011;11327;52.334;9.506;2022-08-21T08:08:46;6.22;;;1.87;;
22318;SDS011;11327;52.334;9.506;2022-08-21T08:12:07;6.08;;;1.92;;
22318;SDS011;11327;52.334;9.506;2022-08-21T08:15:28;5.33;;;1.72;;
22318;SDS011;11327;52.334;9.506;2022-08-21T08:18:49;5.05;;;1.90;;
22318;SDS011;11327;52.334;9.506;2022-08-21T08:22:12;3.95;;;1.70;;
22318;SDS011;11327;52.334;9.506;2022-08-21T08:25:34;6.22;;;2.00;;
22318;SDS011;11327;52.334;9.506;2022-08-21T08:28:55;7.50;;;2.12;;
22318;SDS011;11327;52.334;9.506;2022-08-21T08:32:17;5.55;;;2.00;;
22318;SDS011;11327;52.334;9.506;2022-08-21T08:35:44;6.30;;;2.10;;
22318;SDS011;11327;52.334;9.506;2022-08-21T08:39:03;6.05;;;2.37;;
22318;SDS011;11327;52.334;9.506;2022-08-21T08:42:27;4.50;;;1.98;;
22318;SDS011;11327;52.334;9.506;2022-08-21T08:45:50;5.05;;;1.98;;
22318;SDS011;11327;52.334;9.506;2022-08-21T08:49:15;8.65;;;2.25;;
22318;SDS011;11327;52.334;9.506;2022-08-21T08:52:47;5.15;;;2.20;;
22318;SDS011;11327;52.334;9.506;2022-08-21T08:56:10;9.15;;;2.00;;
22318;SDS011;11327;52.334;9.506;2022-08-21T08:59:37;6.40;;;2.00;;
22318;SDS011;11327;52.334;9.506;2022-08-21T09:03:02;6.33;;;2.40;;
22318;SDS011;11327;52.334;9.506;2022-08-21T09:14:19;4.72;;;1.77;;
22318;SDS011;11327;52.334;9.506;2022-08-21T09:17:56;5.92;;;1.72;;
22318;SDS011;11327;52.334;9.506;2022-08-21T09:28:22;7.92;;;1.82;;
22318;SDS011;11327;52.334;9.506;2022-08-21T09:31:43;5.58;;;1.70;;
22318;SDS011;11327;52.334;9.506;2022-08-21T09:38:34;4.50;;;1.60;;
22318;SDS011;11327;52.334;9.506;2022-08-21T09:41:58;5.37;;;1.67;;
22318;SDS011;11327;52.334;9.506;2022-08-21T09:45:24;7.03;;;1.80;;
22318;SDS011;11327;52.334;9.506;2022-08-21T09:48:46;5.60;;;1.65;;
22318;SDS011;11327;52.334;9.506;2022-08-21T09:52:20;5.53;;;1.95;;
22318;SDS011;11327;52.334;9.506;2022-08-21T09:55:52;4.08;;;1.70;;
22318;SDS011;11327;52.334;9.506;2022-08-21T10:03:09;4.95;;;1.72;;
22318;SDS011;11327;52.334;9.506;2022-08-21T10:06:35;5.60;;;1.75;;
22318;SDS011;11327;52.334;9.506;2022-08-21T10:10:00;5.62;;;1.70;;
22318;SDS011;11327;52.334;9.506;2022-08-21T10:17:07;4.33;;;1.85;;
22318;SDS011;11327;52.334;9.506;2022-08-21T10:20:56;4.47;;;1.75;;
22318;SDS011;11327;52.334;9.506;2022-08-21T10:28:12;7.30;;;1.90;;
22318;SDS011;11327;52.334;9.506;2022-08-21T10:31:42;4.33;;;1.65;;
22318;SDS011;11327;52.334;9.506;2022-08-21T10:35:25;4.72;;;2.20;;
22318;SDS011;11327;52.334;9.506;2022-08-21T10:38:55;4.22;;;1.60;;
22318;SDS011;11327;52.334;9.506;2022-08-21T10:46:17;4.55;;;1.67;;
22318;SDS011;11327;52.334;9.506;2022-08-21T10:56:58;4.60;;;1.77;;
22318;SDS011;11327;52.334;9.506;2022-08-21T11:00:20;3.75;;;1.65;;
22318;SDS011;11327;52.334;9.506;2022-08-21T11:04:00;4.40;;;1.42;;
22318;SDS011;11327;52.334;9.506;2022-08-21T11:10:44;5.37;;;1.60;;
22318;SDS011;11327;52.334;9.506;2022-08-21T11:14:11;5.03;;;1.70;;
22318;SDS011;11327;52.334;9.506;2022-08-21T11:17:57;3.62;;;1.30;;
22318;SDS011;11327;52.334;9.506;2022-08-21T11:21:34;5.12;;;1.85;;
22318;SDS011;11327;52.334;9.506;2022-08-21T11:25:11;3.77;;;1.40;;
22318;SDS011;11327;52.334;9.506;2022-08-21T11:28:34;2.72;;;1.17;;
22318;SDS011;11327;52.334;9.506;2022-08-21T11:32:05;4.30;;;1.50;;
22318;SDS011;11327;52.334;9.506;2022-08-21T11:35:53;3.17;;;1.52;;
22318;SDS011;11327;52.334;9.506;2022-08-21T11:42:50;3.92;;;1.40;;
22318;SDS011;11327;52.334;9.506;2022-08-21T11:56:41;2.33;;;1.30;;
22318;SDS011;11327;52.334;9.506;2022-08-21T12:00:13;3.22;;;1.50;;
22318;SDS011;11327;52.334;9.506;2022-08-21T12:03:36;2.95;;;1.45;;
22318;SDS011;11327;52.334;9.506;2022-08-21T12:07:15;4.22;;;1.50;;
22318;SDS011;11327;52.334;9.506;2022-08-21T12:10:35;4.42;;;1.65;;
22318;SDS011;11327;52.334;9.506;2022-08-21T12:14:11;4.10;;;1.60;;
22318;SDS011;11327;52.334;9.506;2022-08-21T12:17:34;2.45;;;1.42;;
22318;SDS011;11327;52.334;9.506;2022-08-21T12:21:05;5.37;;;1.40;;
22318;SDS011;11327;52.334;9.506;2022-08-21T12:28:02;4.87;;;1.62;;
22318;SDS011;11327;52.334;9.506;2022-08-21T12:31:25;3.33;;;1.30;;
22318;SDS011;11327;52.334;9.506;2022-08-21T12:35:06;3.42;;;1.35;;
22318;SDS011;11327;52.334;9.506;2022-08-21T12:38:32;2.77;;;1.30;;
22318;SDS011;11327;52.334;9.506;2022-08-21T12:49:00;5.87;;;1.50;;
22318;SDS011;11327;52.334;9.506;2022-08-21T12:52:27;2.75;;;1.15;;
22318;SDS011;11327;52.334;9.506;2022-08-21T12:55:51;4.87;;;1.52;;
22318;SDS011;11327;52.334;9.506;2022-08-21T12:59:12;3.90;;;1.40;;
22318;SDS011;11327;52.334;9.506;2022-08-21T13:02:35;3.72;;;1.65;;
22318;SDS011;11327;52.334;9.506;2022-08-21T13:06:00;3.70;;;1.52;;
22318;SDS011;11327;52.334;9.506;2022-08-21T13:09:25;4.08;;;1.30;;
22318;SDS011;11327;52.334;9.506;2022-08-21T13:12:48;4.00;;;1.60;;
22318;SDS011;11327;52.334;9.506;2022-08-21T13:16:09;4.87;;;1.42;;
22318;SDS011;11327;52.334;9.506;2022-08-21T13:19:31;3.20;;;1.20;;
22318;SDS011;11327;52.334;9.506;2022-08-21T13:22:52;2.33;;;1.40;;
22318;SDS011;11327;52.334;9.506;2022-08-21T13:26:17;3.50;;;1.70;;
22318;SDS011;11327;52.334;9.506;2022-08-21T13:29:40;3.27;;;1.57;;
22318;SDS011;11327;52.334;9.506;2022-08-21T13:33:02;3.87;;;1.50;;
22318;SDS011;11327;52.334;9.506;2022-08-21T13:36:31;3.92;;;1.65;;
22318;SDS011;11327;52.334;9.506;2022-08-21T13:39:53;3.08;;;1.60;;
22318;SDS011;11327;52.334;9.506;2022-08-21T13:43:15;4.28;;;2.05;;
22318;SDS011;11327;52.334;9.506;2022-08-21T13:46:38;4.65;;;2.10;;
22318;SDS011;11327;52.334;9.506;2022-08-21T13:50:00;2.83;;;1.70;;
22318;SDS011;11327;52.334;9.506;2022-08-21T13:53:26;3.40;;;1.80;;
22318;SDS011;11327;52.334;9.506;2022-08-21T13:56:46;3.52;;;1.80;;
22318;SDS011;11327;52.334;9.506;2022-08-21T14:03:38;2.87;;;1.90;;
22318;SDS011;11327;52.334;9.506;2022-08-21T14:07:14;3.80;;;2.12;;
22318;SDS011;11327;52.334;9.506;2022-08-21T14:10:45;5.50;;;2.50;;
22318;SDS011;11327;52.334;9.506;2022-08-21T14:17:45;3.72;;;2.45;;
22318;SDS011;11327;52.334;9.506;2022-08-21T14:21:07;4.45;;;2.70;;
22318;SDS011;11327;52.334;9.506;2022-08-21T14:24:30;4.67;;;2.70;;
22318;SDS011;11327;52.334;9.506;2022-08-21T14:27:52;4.55;;;2.80;;
22318;SDS011;11327;52.334;9.506;2022-08-21T14:31:17;3.98;;;2.75;;
22318;SDS011;11327;52.334;9.506;2022-08-21T14:34:40;4.33;;;2.83;;
22318;SDS011;11327;52.334;9.506;2022-08-21T14:38:01;3.83;;;3.00;;
22318;SDS011;11327;52.334;9.506;2022-08-21T14:41:25;4.47;;;3.12;;
22318;SDS011;11327;52.334;9.506;2022-08-21T14:44:48;5.33;;;3.05;;
22318;SDS011;11327;52.334;9.506;2022-08-21T14:48:09;3.65;;;2.67;;
22318;SDS011;11327;52.334;9.506;2022-08-21T14:51:30;3.75;;;2.87;;
22318;SDS011;11327;52.334;9.506;2022-08-21T14:54:51;4.42;;;2.40;;
22318;SDS011;11327;52.334;9.506;2022-08-21T14:58:12;4.05;;;2.40;;
22318;SDS011;11327;52.334;9.506;2022-08-21T15:01:35;3.60;;;2.22;;
22318;SDS011;11327;52.334;9.506;2022-08-21T15:04:57;2.87;;;2.25;;
22318;SDS011;11327;52.334;9.506;2022-08-21T15:08:19;2.60;;;2.10;;
22318;SDS011;11327;52.334;9.506;2022-08-21T15:11:40;4.78;;;2.37;;
22318;SDS011;11327;52.334;9.506;2022-08-21T15:15:00;3.65;;;2.30;;
22318;SDS011;11327;52.334;9.506;2022-08-21T15:18:23;5.00;;;2.40;;
22318;SDS011;11327;52.334;9.506;2022-08-21T15:21:47;3.20;;;2.15;;
22318;SDS011;11327;52.334;9.506;2022-08-21T15:25:08;2.75;;;2.00;;
22318;SDS011;11327;52.334;9.506;2022-08-21T15:28:29;2.65;;;1.85;;
22318;SDS011;11327;52.334;9.506;2022-08-21T15:31:51;3.98;;;2.35;;
22318;SDS011;11327;52.334;9.506;2022-08-21T15:35:18;3.60;;;2.25;;
22318;SDS011;11327;52.334;9.506;2022-08-21T15:38:39;4.60;;;2.50;;
22318;SDS011;11327;52.334;9.506;2022-08-21T15:42:00;4.75;;;2.60;;
22318;SDS011;11327;52.334;9.506;2022-08-21T15:45:21;4.55;;;2.22;;
22318;SDS011;11327;52.334;9.506;2022-08-21T15:48:42;4.95;;;2.55;;
22318;SDS011;11327;52.334;9.506;2022-08-21T15:52:03;4.10;;;2.52;;
22318;SDS011;11327;52.334;9.506;2022-08-21T15:55:25;4.00;;;2.45;;
22318;SDS011;11327;52.334;9.506;2022-08-21T15:58:45;4.60;;;2.50;;
22318;SDS011;11327;52.334;9.506;2022-08-21T16:02:11;3.42;;;2.67;;
22318;SDS011;11327;52.334;9.506;2022-08-21T16:05:34;3.80;;;2.67;;
22318;SDS011;11327;52.334;9.506;2022-08-21T16:08:55;4.03;;;2.50;;
22318;SDS011;11327;52.334;9.506;2022-08-21T16:12:18;5.37;;;2.58;;
22318;SDS011;11327;52.334;9.506;2022-08-21T16:15:41;6.28;;;2.80;;
22318;SDS011;11327;52.334;9.506;2022-08-21T16:19:02;4.53;;;2.77;;
22318;SDS011;11327;52.334;9.506;2022-08-21T16:22:25;3.47;;;3.15;;
22318;SDS011;11327;52.334;9.506;2022-08-21T16:25:47;3.85;;;2.70;;
22318;SDS011;11327;52.334;9.506;2022-08-21T16:29:08;4.92;;;3.25;;
22318;SDS011;11327;52.334;9.506;2022-08-21T16:32:30;3.37;;;2.80;;
22318;SDS011;11327;52.334;9.506;2022-08-21T16:35:51;3.80;;;2.55;;
22318;SDS011;11327;52.334;9.506;2022-08-21T16:39:12;3.08;;;2.60;;
22318;SDS011;11327;52.334;9.506;2022-08-21T16:42:34;3.58;;;2.65;;
22318;SDS011;11327;52.334;9.506;2022-08-21T16:45:56;5.17;;;3.08;;
22318;SDS011;11327;52.334;9.506;2022-08-21T16:49:18;3.42;;;2.80;;
22318;SDS011;11327;52.334;9.506;2022-08-21T16:52:39;2.85;;;2.50;;
22318;SDS011;11327;52.334;9.506;2022-08-21T16:56:00;5.95;;;3.10;;
22318;SDS011;11327;52.334;9.506;2022-08-21T16:59:21;4.80;;;3.08;;
22318;SDS011;11327;52.334;9.506;2022-08-21T17:02:43;5.40;;;2.92;;
22318;SDS011;11327;52.334;9.506;2022-08-21T17:06:06;5.10;;;2.90;;
22318;SDS011;11327;52.334;9.506;2022-08-21T17:09:28;4.62;;;3.50;;
22318;SDS011;11327;52.334;9.506;2022-08-21T17:12:56;5.12;;;3.15;;
22318;SDS011;11327;52.334;9.506;2022-08-21T17:16:16;4.45;;;3.90;;
22318;SDS011;11327;52.334;9.506;2022-08-21T17:19:37;7.17;;;5.37;;
22318;SDS011;11327;52.334;9.506;2022-08-21T17:22:58;5.25;;;4.40;;
22318;SDS011;11327;52.334;9.506;2022-08-21T17:26:19;5.70;;;4.25;;
22318;SDS011;11327;52.334;9.506;2022-08-21T17:29:40;4.05;;;3.60;;
22318;SDS011;11327;52.334;9.506;2022-08-21T17:33:02;4.90;;;3.10;;
22318;SDS011;11327;52.334;9.506;2022-08-21T17:36:24;3.33;;;2.62;;
22318;SDS011;11327;52.334;9.506;2022-08-21T17:39:46;5.12;;;2.80;;
22318;SDS011;11327;52.334;9.506;2022-08-21T17:43:07;4.05;;;2.80;;
22318;SDS011;11327;52.334;9.506;2022-08-21T17:46:30;3.65;;;2.75;;
22318;SDS011;11327;52.334;9.506;2022-08-21T17:49:51;3.98;;;2.83;;
22318;SDS011;11327;52.334;9.506;2022-08-21T17:53:12;4.03;;;2.90;;
22318;SDS011;11327;52.334;9.506;2022-08-21T17:56:34;4.15;;;2.92;;
22318;SDS011;11327;52.334;9.506;2022-08-21T17:59:57;5.95;;;2.95;;
22318;SDS011;11327;52.334;9.506;2022-08-21T18:03:18;3.33;;;2.62;;
22318;SDS011;11327;52.334;9.506;2022-08-21T18:06:41;4.70;;;3.40;;
22318;SDS011;11327;52.334;9.506;2022-08-21T18:10:04;4.03;;;3.00;;
22318;SDS011;11327;52.334;9.506;2022-08-21T18:13:30;5.37;;;3.30;;
22318;SDS011;11327;52.334;9.506;2022-08-21T18:16:51;4.53;;;2.65;;
22318;SDS011;11327;52.334;9.506;2022-08-21T18:20:13;4.62;;;2.98;;
22318;SDS011;11327;52.334;9.506;2022-08-21T18:23:35;3.95;;;2.60;;
22318;SDS011;11327;52.334;9.506;2022-08-21T18:26:56;4.40;;;2.70;;
22318;SDS011;11327;52.334;9.506;2022-08-21T18:30:18;4.22;;;2.50;;
22318;SDS011;11327;52.334;9.506;2022-08-21T18:33:40;5.20;;;2.50;;
22318;SDS011;11327;52.334;9.506;2022-08-21T18:37:02;3.27;;;2.10;;
22318;SDS011;11327;52.334;9.506;2022-08-21T18:40:23;3.40;;;2.20;;
22318;SDS011;11327;52.334;9.506;2022-08-21T18:43:44;4.62;;;2.52;;
22318;SDS011;11327;52.334;9.506;2022-08-21T18:47:07;2.87;;;2.10;;
22318;SDS011;11327;52.334;9.506;2022-08-21T18:50:31;2.90;;;1.87;;
22318;SDS011;11327;52.334;9.506;2022-08-21T18:53:52;3.10;;;1.95;;
22318;SDS011;11327;52.334;9.506;2022-08-21T18:57:16;3.65;;;2.10;;
22318;SDS011;11327;52.334;9.506;2022-08-21T19:00:42;4.08;;;1.85;;
22318;SDS011;11327;52.334;9.506;2022-08-21T19:04:04;2.85;;;1.60;;
22318;SDS011;11327;52.334;9.506;2022-08-21T19:07:26;3.98;;;2.05;;
22318;SDS011;11327;52.334;9.506;2022-08-21T19:10:47;2.20;;;1.70;;
22318;SDS011;11327;52.334;9.506;2022-08-21T19:14:10;3.45;;;1.80;;
22318;SDS011;11327;52.334;9.506;2022-08-21T19:17:34;2.90;;;1.70;;
22318;SDS011;11327;52.334;9.506;2022-08-21T19:20:56;2.22;;;1.50;;
22318;SDS011;11327;52.334;9.506;2022-08-21T19:24:17;2.90;;;1.87;;
22318;SDS011;11327;52.334;9.506;2022-08-21T19:27:37;2.72;;;1.70;;
22318;SDS011;11327;52.334;9.506;2022-08-21T19:31:02;3.67;;;1.90;;
22318;SDS011;11327;52.334;9.506;2022-08-21T19:34:26;2.85;;;1.70;;
22318;SDS011;11327;52.334;9.506;2022-08-21T19:37:48;3.40;;;1.72;;
22318;SDS011;11327;52.334;9.506;2022-08-21T19:41:10;3.87;;;1.87;;
22318;SDS011;11327;52.334;9.506;2022-08-21T19:44:33;3.30;;;2.20;;
22318;SDS011;11327;52.334;9.506;2022-08-21T19:47:56;3.12;;;2.10;;
22318;SDS011;11327;52.334;9.506;2022-08-21T19:51:17;4.00;;;2.47;;
22318;SDS011;11327;52.334;9.506;2022-08-21T19:54:38;3.62;;;2.40;;
22318;SDS011;11327;52.334;9.506;2022-08-21T19:57:59;3.70;;;2.15;;
22318;SDS011;11327;52.334;9.506;2022-08-21T20:01:22;4.30;;;2.20;;
22318;SDS011;11327;52.334;9.506;2022-08-21T20:04:45;3.17;;;2.27;;
22318;SDS011;11327;52.334;9.506;2022-08-21T20:08:07;3.62;;;1.90;;
22318;SDS011;11327;52.334;9.506;2022-08-21T20:11:29;4.25;;;2.08;;
22318;SDS011;11327;52.334;9.506;2022-08-21T20:14:55;4.20;;;2.22;;
22318;SDS011;11327;52.334;9.506;2022-08-21T20:18:16;3.27;;;2.30;;
22318;SDS011;11327;52.334;9.506;2022-08-21T20:21:38;3.22;;;1.85;;
22318;SDS011;11327;52.334;9.506;2022-08-21T20:24:59;4.33;;;2.20;;
22318;SDS011;11327;52.334;9.506;2022-08-21T20:28:20;3.67;;;1.92;;
22318;SDS011;11327;52.334;9.506;2022-08-21T20:31:41;4.12;;;1.98;;
22318;SDS011;11327;52.334;9.506;2022-08-21T20:35:03;3.42;;;2.00;;
22318;SDS011;11327;52.334;9.506;2022-08-21T20:38:25;4.40;;;2.00;;
22318;SDS011;11327;52.334;9.506;2022-08-21T20:41:46;3.52;;;2.02;;
22318;SDS011;11327;52.334;9.506;2022-08-21T20:45:07;2.95;;;1.70;;
22318;SDS011;11327;52.334;9.506;2022-08-21T20:48:32;2.30;;;1.80;;
22318;SDS011;11327;52.334;9.506;2022-08-21T20:51:55;3.33;;;1.77;;
22318;SDS011;11327;52.334;9.506;2022-08-21T20:55:18;3.75;;;2.17;;
22318;SDS011;11327;52.334;9.506;2022-08-21T20:58:56;2.50;;;1.90;;
22318;SDS011;11327;52.334;9.506;2022-08-21T21:06:02;2.75;;;2.02;;
22318;SDS011;11327;52.334;9.506;2022-08-21T21:09:33;5.03;;;2.40;;
22318;SDS011;11327;52.334;9.506;2022-08-21T21:12:55;4.12;;;2.52;;
22318;SDS011;11327;52.334;9.506;2022-08-21T21:16:25;3.02;;;2.30;;
22318;SDS011;11327;52.334;9.506;2022-08-21T21:19:51;3.87;;;2.20;;
22318;SDS011;11327;52.334;9.506;2022-08-21T21:23:18;4.00;;;2.45;;
22318;SDS011;11327;52.334;9.506;2022-08-21T21:26:58;3.85;;;2.10;;
22318;SDS011;11327;52.334;9.506;2022-08-21T21:30:22;3.33;;;2.27;;
22318;SDS011;11327;52.334;9.506;2022-08-21T21:33:45;3.47;;;1.98;;
22318;SDS011;11327;52.334;9.506;2022-08-21T21:37:14;2.22;;;1.95;;
22318;SDS011;11327;52.334;9.506;2022-08-21T21:55:35;3.22;;;1.80;;
22318;SDS011;11327;52.334;9.506;2022-08-21T22:06:21;4.28;;;2.33;;